Time;durP1;ratioP1;P1;durP2;ratioP2;P2;SDS_P1;SDS_P2;PMS_P1;PMS_P2;Temp;Humidity;BMP_temperature;BMP_pressure;BME280_temperature;BME280_humidity;BME280_pressure;Samples;Min_cycle;Max_cycle;Signal;HPM_P1;HPM_P2
2023/06/04 00:00:45;;;;;;;3.40;3.10;;;;;;;11.16;47.31;101631.88;4923961;29;20440;-82
2023/06/04 00:03:15;;;;;;;3.20;2.70;;;;;;;11.19;47.36;101641.47;4924982;29;20419;-82
2023/06/04 00:05:44;;;;;;;6.73;3.07;;;;;;;11.11;47.68;101631.59;4927580;29;20420;-82
2023/06/04 00:08:14;;;;;;;3.10;2.30;;;;;;;11.04;48.20;101635.22;4924880;29;20432;-82
2023/06/04 00:10:44;;;;;;;2.63;2.10;;;;;;;10.93;48.61;101625.72;4933495;29;20452;-81
2023/06/04 00:13:14;;;;;;;8.17;6.07;;;;;;;10.94;48.75;101623.88;4927464;29;20814;-83
2023/06/04 00:15:43;;;;;;;3.90;2.90;;;;;;;10.82;49.18;101621.59;4926811;29;20437;-82
2023/06/04 00:18:13;;;;;;;6.20;5.00;;;;;;;10.70;49.72;101622.22;4927421;29;20503;-83
2023/06/04 00:20:45;;;;;;;4.43;3.10;;;;;;;10.86;49.48;101622.91;4934455;29;20469;-83
2023/06/04 00:23:14;;;;;;;4.90;2.93;;;;;;;10.69;50.11;101626.84;4945000;29;20467;-82
2023/06/04 00:25:45;;;;;;;6.55;3.20;;;;;;;10.63;50.50;101622.16;4940125;29;20515;-83
2023/06/04 00:28:15;;;;;;;5.80;2.97;;;;;;;10.44;51.07;101622.69;4939008;29;20244;-83
2023/06/04 00:30:44;;;;;;;4.68;3.00;;;;;;;10.49;51.02;101617.56;4929490;29;20447;-84
2023/06/04 00:33:13;;;;;;;16.10;3.37;;;;;;;10.39;51.63;101611.56;4926858;29;20200;-83
2023/06/04 00:35:43;;;;;;;3.53;2.88;;;;;;;10.46;51.80;101610.63;4935518;29;20452;-83
2023/06/04 00:38:12;;;;;;;7.57;3.67;;;;;;;10.34;51.83;101609.41;4935508;29;20734;-84
2023/06/04 00:40:41;;;;;;;3.55;3.10;;;;;;;10.50;51.88;101611.13;4933065;29;20262;-83
2023/06/04 00:43:13;;;;;;;4.95;3.60;;;;;;;10.43;52.15;101612.88;4925594;29;20221;-83
2023/06/04 00:45:43;;;;;;;4.55;3.67;;;;;;;10.42;52.48;101611.19;4925618;29;20201;-84
2023/06/04 00:48:12;;;;;;;6.00;4.25;;;;;;;10.42;52.68;101608.47;4922494;29;20218;-84
2023/06/04 00:50:42;;;;;;;7.10;5.38;;;;;;;10.40;52.57;101610.56;4922590;29;20205;-83
2023/06/04 00:53:11;;;;;;;8.90;6.50;;;;;;;10.33;52.63;101605.03;4921480;29;20344;-83
2023/06/04 00:55:41;;;;;;;5.18;3.85;;;;;;;10.22;53.36;101612.72;4921986;29;20208;-84
2023/06/04 00:58:12;;;;;;;4.75;3.33;;;;;;;10.14;53.42;101605.50;4927178;29;20221;-82
2023/06/04 01:00:42;;;;;;;3.95;2.50;;;;;;;10.08;53.67;101608.94;4928642;29;20202;-83
2023/06/04 01:03:18;;;;;;;3.13;2.78;;;;;;;10.02;53.97;101612.38;4926054;29;20734;-83
2023/06/04 01:05:55;;;;;;;2.85;2.10;;;;;;;9.96;54.42;101613.94;4924653;29;20262;-83
2023/06/04 01:08:25;;;;;;;3.17;2.67;;;;;;;10.10;54.61;101614.16;4922220;29;20221;-84
2023/06/04 01:10:55;;;;;;;3.88;2.30;;;;;;;10.01;54.85;101606.13;4922043;29;20689;-85
2023/06/04 01:13:27;;;;;;;4.22;2.90;;;;;;;10.22;54.26;101601.91;4927614;29;20205;-83
2023/06/04 01:15:56;;;;;;;3.55;2.85;;;;;;;10.07;54.37;101604.53;4922103;29;20219;-84
2023/06/04 01:18:29;;;;;;;4.05;2.80;;;;;;;9.95;54.67;101606.00;4926169;29;20209;-83
2023/06/04 01:21:01;;;;;;;3.63;2.35;;;;;;;9.82;55.20;101606.63;4928591;29;20209;-83
2023/06/04 01:23:38;;;;;;;3.30;2.80;;;;;;;9.88;56.10;101605.88;4923860;29;20193;-85
2023/06/04 01:26:10;;;;;;;2.65;2.28;;;;;;;10.16;54.79;101602.66;4930186;29;20207;-84
2023/06/04 01:28:41;;;;;;;5.63;4.15;;;;;;;10.03;55.09;101598.66;4934742;29;20230;-84
2023/06/04 01:31:12;;;;;;;8.48;2.83;;;;;;;9.86;55.69;101599.81;4938141;29;20195;-84
2023/06/04 01:33:41;;;;;;;3.35;2.08;;;;;;;9.90;55.77;101603.84;4939912;29;20226;-82
2023/06/04 01:36:12;;;;;;;3.40;2.50;;;;;;;9.96;55.49;101600.41;4940021;29;20223;-83
2023/06/04 01:38:41;;;;;;;2.60;2.25;;;;;;;9.82;55.86;101595.81;4940291;29;20289;-84
2023/06/04 01:41:11;;;;;;;2.55;1.80;;;;;;;9.82;56.09;101601.22;4937684;29;20221;-82
2023/06/04 01:43:41;;;;;;;6.32;2.20;;;;;;;9.78;56.32;101594.44;4939873;29;20203;-81
2023/06/04 01:46:11;;;;;;;7.72;2.97;;;;;;;9.71;56.57;101593.50;4939813;29;20195;-82
2023/06/04 01:48:40;;;;;;;6.75;2.50;;;;;;;9.82;56.21;101595.81;4939423;29;20217;-82
2023/06/04 01:51:10;;;;;;;4.30;2.00;;;;;;;9.85;56.03;101590.03;4939715;29;20177;-82
2023/06/04 01:53:39;;;;;;;2.70;1.77;;;;;;;9.84;56.19;101593.72;4939491;29;20643;-82
2023/06/04 01:56:08;;;;;;;3.20;2.33;;;;;;;9.84;56.18;101591.03;4939748;29;20184;-84
2023/06/04 01:58:37;;;;;;;3.35;2.50;;;;;;;9.84;56.21;101588.31;4938907;29;20250;-82
2023/06/04 02:01:09;;;;;;;2.72;2.08;;;;;;;9.75;56.61;101583.16;4934802;29;20189;-83
2023/06/04 02:03:40;;;;;;;4.10;2.92;;;;;;;9.67;57.10;101592.19;4934278;29;20209;-82
2023/06/04 02:06:10;;;;;;;3.70;2.03;;;;;;;9.74;57.06;101585.03;4928140;29;20221;-83
2023/06/04 02:08:40;;;;;;;3.75;2.65;;;;;;;9.82;56.85;101589.53;4935006;29;20222;-82
2023/06/04 02:11:09;;;;;;;3.25;2.13;;;;;;;9.84;57.45;101582.91;4937307;29;20259;-83
2023/06/04 02:13:38;;;;;;;1.83;1.63;;;;;;;10.09;57.06;101580.03;4939715;29;20181;-83
2023/06/04 02:16:09;;;;;;;3.13;2.30;;;;;;;9.90;56.67;101579.50;4940362;29;20243;-81
2023/06/04 02:18:38;;;;;;;3.63;2.97;;;;;;;9.73;57.43;101580.63;4940761;29;20223;-83
2023/06/04 02:21:08;;;;;;;3.33;2.65;;;;;;;10.03;57.22;101587.00;4941153;29;20202;-81
2023/06/04 02:23:38;;;;;;;3.00;1.95;;;;;;;9.98;57.31;101584.84;4940168;29;20182;-82
2023/06/04 02:26:07;;;;;;;3.05;2.25;;;;;;;9.66;58.11;101584.25;4940084;29;20206;-82
2023/06/04 02:28:36;;;;;;;5.30;2.03;;;;;;;9.40;58.53;101587.28;4937661;29;20228;-84
2023/06/04 02:31:05;;;;;;;5.75;3.00;;;;;;;9.35;59.58;101584.25;4933985;29;20201;-83
2023/06/04 02:33:36;;;;;;;4.38;2.70;;;;;;;9.57;59.76;101572.66;4934883;29;20196;-85
2023/06/04 02:36:06;;;;;;;3.38;2.25;;;;;;;9.70;58.79;101580.16;4925658;29;20216;-85
2023/06/04 02:38:35;;;;;;;4.00;2.90;;;;;;;9.52;58.75;101577.75;4932189;29;20213;-85
2023/06/04 02:41:04;;;;;;;7.53;2.50;;;;;;;9.35;59.28;101586.97;4939286;29;20200;-82
2023/06/04 02:43:34;;;;;;;8.07;2.90;;;;;;;9.66;59.68;101582.38;4925129;29;20434;-84
2023/06/04 02:46:06;;;;;;;3.15;2.65;;;;;;;9.62;59.07;101583.78;4924923;29;20228;-84
2023/06/04 02:48:36;;;;;;;5.40;2.63;;;;;;;9.46;59.68;101597.38;4935074;29;20216;-86
2023/06/04 02:51:10;;;;;;;5.47;3.03;;;;;;;9.39;59.56;101593.72;4924689;29;20230;-84
2023/06/04 02:53:39;;;;;;;2.50;1.90;;;;;;;9.32;60.26;101592.72;4924249;29;20217;-84
2023/06/04 02:56:08;;;;;;;3.05;2.75;;;;;;;9.17;60.49;101600.72;4926735;29;20212;-84
2023/06/04 02:58:39;;;;;;;3.25;2.60;;;;;;;9.30;60.50;101597.44;4926443;29;20720;-85
2023/06/04 03:01:08;;;;;;;11.20;2.70;;;;;;;9.51;60.26;101593.13;4926409;29;20215;-85
2023/06/04 03:03:39;;;;;;;4.03;2.83;;;;;;;9.31;60.73;101593.75;4932113;29;20190;-83
2023/06/04 03:06:10;;;;;;;7.20;2.50;;;;;;;9.46;60.41;101590.13;4940377;29;20185;-82
2023/06/04 03:08:39;;;;;;;4.28;3.03;;;;;;;9.31;60.66;101591.03;4935079;29;20284;-84
2023/06/04 03:11:09;;;;;;;4.35;2.80;;;;;;;9.16;61.36;101588.25;4922071;29;20193;-83
2023/06/04 03:13:38;;;;;;;3.90;3.50;;;;;;;9.21;61.47;101590.41;4935101;29;20276;-85
2023/06/04 03:16:09;;;;;;;4.65;2.80;;;;;;;9.24;61.57;101587.38;4913776;29;20199;-84
2023/06/04 03:18:40;;;;;;;3.88;2.53;;;;;;;9.26;61.68;101593.44;4914568;29;20785;-86
2023/06/04 03:21:11;;;;;;;3.50;2.70;;;;;;;9.14;62.12;101593.00;4917990;29;20234;-85
2023/06/04 03:23:41;;;;;;;4.40;3.20;;;;;;;9.26;61.96;101593.44;4917164;29;20220;-83
2023/06/04 03:26:12;;;;;;;5.28;2.70;;;;;;;9.24;61.94;101590.94;4918145;29;20220;-83
2023/06/04 03:28:41;;;;;;;4.50;3.28;;;;;;;9.54;61.49;101586.50;4928602;29;20280;-85
2023/06/04 03:31:14;;;;;;;4.43;3.05;;;;;;;9.80;60.63;101592.41;4923781;29;20193;-85
2023/06/04 03:33:45;;;;;;;4.18;3.08;;;;;;;10.14;59.71;101578.47;4923092;29;20492;-86
2023/06/04 03:36:16;;;;;;;4.05;3.17;;;;;;;10.69;57.90;101588.94;4922936;29;20208;-83
2023/06/04 03:38:47;;;;;;;4.85;3.22;;;;;;;11.46;55.68;101594.72;4937043;29;20231;-82
2023/06/04 03:41:16;;;;;;;5.72;3.28;;;;;;;12.72;52.01;101599.44;4935229;29;20390;-81
2023/06/04 03:43:45;;;;;;;4.67;3.10;;;;;;;13.85;48.80;101597.84;4934596;29;20215;-84
2023/06/04 03:46:14;;;;;;;6.93;2.80;;;;;;;14.52;46.87;101593.31;4937133;29;20457;-84
2023/06/04 03:48:45;;;;;;;5.43;2.83;;;;;;;15.13;45.34;101597.34;4933057;29;20453;-84
2023/06/04 03:51:15;;;;;;;4.13;2.80;;;;;;;15.35;44.45;101595.16;4925792;29;20423;-85
2023/06/04 03:53:45;;;;;;;3.97;2.70;;;;;;;15.45;44.16;101597.41;4924292;29;20483;-84
2023/06/04 03:56:15;;;;;;;4.40;2.50;;;;;;;15.63;43.52;101600.31;4924299;29;20978;-83
2023/06/04 03:58:44;;;;;;;3.70;2.60;;;;;;;15.29;44.16;101589.75;4926623;29;20498;-85
2023/06/04 04:01:13;;;;;;;2.77;2.50;;;;;;;16.13;42.74;101594.94;4935574;29;20512;-82
2023/06/04 04:03:48;;;;;;;4.23;3.30;;;;;;;16.71;41.70;101595.50;4944987;29;20484;-84
2023/06/04 04:06:18;;;;;;;4.27;3.30;;;;;;;17.08;41.04;101597.22;4936852;29;20947;-84
2023/06/04 04:08:48;;;;;;;4.50;3.77;;;;;;;17.33;40.36;101594.38;4933984;29;20446;-85
2023/06/04 04:11:21;;;;;;;4.03;2.47;;;;;;;17.25;40.16;101597.41;4934552;29;20450;-85
2023/06/04 04:13:52;;;;;;;4.70;3.13;;;;;;;17.50;39.83;101598.16;4935875;29;20423;-82
2023/06/04 04:16:23;;;;;;;4.37;3.03;;;;;;;17.80;39.38;101601.75;4937412;29;20434;-80
2023/06/04 04:18:55;;;;;;;3.70;2.60;;;;;;;17.90;39.10;101595.72;4934140;29;20501;-81
2023/06/04 04:21:24;;;;;;;3.87;2.97;;;;;;;17.53;39.76;101600.41;4933209;29;20420;-81
2023/06/04 04:23:54;;;;;;;3.63;2.30;;;;;;;17.94;38.82;101601.56;4933589;29;20457;-80
2023/06/04 04:26:27;;;;;;;10.23;2.80;;;;;;;17.82;38.82;101609.72;4932856;29;20980;-81
2023/06/04 04:28:59;;;;;;;3.87;2.50;;;;;;;17.86;39.04;101610.13;4921241;29;20552;-82
2023/06/04 04:31:36;;;;;;;4.10;3.43;;;;;;;18.34;38.24;101612.72;4925292;29;20499;-82
2023/06/04 04:34:09;;;;;;;3.50;2.50;;;;;;;18.11;38.65;101611.59;4928770;29;20453;-81
2023/06/04 04:36:43;;;;;;;3.50;2.83;;;;;;;18.00;39.17;101611.59;4929342;29;20473;-81
2023/06/04 04:39:13;;;;;;;3.63;2.87;;;;;;;18.13;38.87;101606.75;4934960;29;20463;-81
2023/06/04 04:41:42;;;;;;;3.30;2.70;;;;;;;18.23;38.45;101617.13;4925919;29;20427;-81
2023/06/04 04:44:11;;;;;;;3.43;2.73;;;;;;;18.26;38.77;101616.63;4926328;29;20422;-82
2023/06/04 04:46:41;;;;;;;5.83;3.03;;;;;;;19.34;37.38;101610.66;4943011;29;20481;-81
2023/06/04 04:49:11;;;;;;;2.77;2.27;;;;;;;19.62;36.87;101607.13;4930829;29;20432;-81
2023/06/04 04:51:40;;;;;;;4.90;2.73;;;;;;;19.43;37.13;101611.94;4924403;29;20418;-81
2023/06/04 04:54:10;;;;;;;3.30;2.50;;;;;;;19.39;37.02;101614.34;4927367;29;20427;-82
2023/06/04 04:56:40;;;;;;;3.53;2.37;;;;;;;20.13;35.97;101619.94;4926739;29;20531;-81
2023/06/04 04:59:09;;;;;;;3.83;2.60;;;;;;;20.22;35.70;101621.19;4934415;29;20537;-81
2023/06/04 05:01:38;;;;;;;4.50;2.97;;;;;;;20.94;34.68;101624.00;4934861;29;20540;-82
2023/06/04 05:04:08;;;;;;;7.20;2.80;;;;;;;21.18;34.14;101625.47;4930722;29;20475;-82
2023/06/04 05:06:42;;;;;;;7.20;2.80;;;;;;;20.42;35.77;101626.22;4923425;29;20467;-83
2023/06/04 05:09:12;;;;;;;6.03;3.30;;;;;;;20.06;35.95;101621.97;4921032;29;20540;-82
2023/06/04 05:11:41;;;;;;;4.23;2.97;;;;;;;20.54;35.11;101627.78;4925700;29;20433;-81
2023/06/04 05:14:10;;;;;;;3.00;2.50;;;;;;;20.77;34.96;101624.00;4925704;29;20428;-82
2023/06/04 05:16:41;;;;;;;2.37;2.17;;;;;;;20.89;34.84;101619.25;4925562;29;20475;-81
2023/06/04 05:19:13;;;;;;;6.20;3.30;;;;;;;21.66;33.77;101620.00;4926586;29;20803;-80
2023/06/04 05:21:45;;;;;;;7.47;3.13;;;;;;;21.76;33.56;101627.56;4927209;29;20428;-82
2023/06/04 05:24:15;;;;;;;4.37;2.90;;;;;;;20.97;34.24;101620.72;4928578;29;20441;-82
2023/06/04 05:26:44;;;;;;;6.47;2.63;;;;;;;21.25;33.81;101621.44;4927423;29;20556;-82
2023/06/04 05:29:19;;;;;;;4.97;3.23;;;;;;;21.76;33.33;101621.22;4929685;29;20447;-81
2023/06/04 05:31:49;;;;;;;3.33;2.20;;;;;;;21.23;33.97;101623.63;4924302;29;20451;-82
2023/06/04 05:34:21;;;;;;;5.10;2.47;;;;;;;20.48;35.04;101626.03;4923890;29;20453;-80
2023/06/04 05:36:53;;;;;;;3.87;2.33;;;;;;;17.69;40.08;101624.44;4917999;29;20489;-80
2023/06/04 05:39:24;;;;;;;4.43;2.47;;;;;;;16.70;41.58;101623.91;4935717;29;20478;-81
2023/06/04 05:41:59;;;;;;;4.10;2.20;;;;;;;16.25;42.97;101626.78;4948028;29;20438;-83
2023/06/04 05:44:28;;;;;;;4.93;2.80;;;;;;;15.89;44.37;101632.91;4933816;29;20423;-83
2023/06/04 05:46:57;;;;;;;5.10;2.43;;;;;;;15.60;44.31;101628.84;4930840;29;20471;-80
2023/06/04 05:49:27;;;;;;;2.40;1.73;;;;;;;15.51;44.42;101626.59;4929232;29;20442;-82
2023/06/04 05:52:00;;;;;;;2.30;1.67;;;;;;;15.55;44.26;101638.75;4928234;29;20489;-80
2023/06/04 05:54:30;;;;;;;7.23;2.73;;;;;;;15.52;44.65;101633.72;4931606;29;20396;-81
2023/06/04 05:56:59;;;;;;;24.97;3.53;;;;;;;15.57;45.13;101636.66;4935042;29;20476;-80
2023/06/04 05:59:29;;;;;;;3.17;1.87;;;;;;;15.70;44.04;101636.56;4932080;29;20479;-81
2023/06/04 06:02:02;;;;;;;5.87;2.77;;;;;;;15.81;43.95;101633.16;4928253;29;20433;-81
2023/06/04 06:04:31;;;;;;;3.93;1.93;;;;;;;15.93;43.54;101636.00;4930660;29;20428;-82
2023/06/04 06:07:02;;;;;;;3.07;2.10;;;;;;;16.10;43.54;101631.72;4916937;29;20471;-81
2023/06/04 06:09:31;;;;;;;2.80;1.70;;;;;;;16.24;43.45;101637.91;4922576;29;20451;-80
2023/06/04 06:12:01;;;;;;;8.07;2.50;;;;;;;16.57;42.78;101646.69;4924402;29;20412;-80
2023/06/04 06:14:31;;;;;;;3.93;1.90;;;;;;;16.66;41.92;101639.91;4924366;29;20429;-80
2023/06/04 06:17:02;;;;;;;2.27;1.77;;;;;;;16.92;41.23;101642.38;4919265;29;20458;-81
2023/06/04 06:19:32;;;;;;;1.80;1.40;;;;;;;17.18;40.74;101648.66;4920649;29;20509;-81
2023/06/04 06:22:03;;;;;;;7.33;2.10;;;;;;;17.41;40.38;101646.06;4921084;29;20430;-80
2023/06/04 06:24:33;;;;;;;2.20;1.90;;;;;;;17.41;39.06;101648.78;4935402;29;20432;-82
2023/06/04 06:27:02;;;;;;;2.40;1.80;;;;;;;17.44;38.96;101642.84;4939105;29;20469;-82
2023/06/04 06:29:31;;;;;;;2.60;1.63;;;;;;;17.46;38.63;101653.56;4940226;29;20510;-82
2023/06/04 06:32:00;;;;;;;1.90;1.70;;;;;;;17.58;37.89;101649.81;4944914;28;20407;-81
2023/06/04 06:34:29;;;;;;;6.03;1.93;;;;;;;17.65;38.00;101650.63;4943302;29;20424;-83
2023/06/04 06:36:58;;;;;;;4.60;2.00;;;;;;;17.94;37.38;101651.69;4938641;29;20511;-83
2023/06/04 06:39:29;;;;;;;7.03;2.27;;;;;;;18.24;36.83;101646.19;4943729;29;20420;-83
2023/06/04 06:41:58;;;;;;;3.20;2.30;;;;;;;18.32;36.25;101645.00;4939659;29;20485;-83
2023/06/04 06:44:33;;;;;;;4.17;2.00;;;;;;;18.43;35.29;101652.41;4939578;29;20453;-84
2023/06/04 06:47:02;;;;;;;2.80;1.57;;;;;;;18.35;34.40;101656.31;4936410;28;20485;-82
2023/06/04 06:52:26;;;;;;;7.20;1.77;;;;;;;18.93;34.52;101661.06;4938458;28;20435;-79
2023/06/04 06:54:56;;;;;;;2.07;1.50;;;;;;;19.25;33.79;101654.13;4931588;29;20497;-82
2023/06/04 06:57:25;;;;;;;5.37;1.90;;;;;;;19.45;33.96;101651.84;4930029;29;20461;-79
2023/06/04 06:59:54;;;;;;;3.43;1.40;;;;;;;19.66;32.78;101644.00;4923123;29;20494;-80
2023/06/04 07:02:31;;;;;;;2.30;1.70;;;;;;;19.54;32.70;101652.31;4921261;29;20397;-87
2023/06/04 07:05:04;;;;;;;5.93;1.77;;;;;;;19.71;33.17;101652.34;4925772;29;20433;-80
2023/06/04 07:07:33;;;;;;;2.43;1.43;;;;;;;19.87;32.28;101652.41;4926752;29;20484;-78
2023/06/04 07:10:04;;;;;;;3.60;1.77;;;;;;;19.82;31.24;101652.31;4932263;29;20494;-82
2023/06/04 07:12:34;;;;;;;6.73;1.63;;;;;;;19.84;31.66;101654.81;4928865;29;20424;-82
2023/06/04 07:15:03;;;;;;;3.80;1.30;;;;;;;19.77;30.72;101657.72;4921071;29;20470;-81
2023/06/04 07:17:33;;;;;;;2.83;1.60;;;;;;;19.59;30.27;101651.56;4920335;29;20477;-82
2023/06/04 07:20:03;;;;;;;2.13;1.43;;;;;;;19.64;31.16;101657.16;4921137;29;20469;-82
2023/06/04 07:22:32;;;;;;;3.20;2.17;;;;;;;19.87;30.44;101648.84;4927931;29;20977;-82
2023/06/04 07:25:03;;;;;;;4.00;1.63;;;;;;;19.71;30.13;101653.19;4929232;29;20481;-83
2023/06/04 07:27:34;;;;;;;2.70;1.90;;;;;;;19.77;29.81;101652.22;4936343;29;20491;-83
2023/06/04 07:30:04;;;;;;;3.23;1.33;;;;;;;19.73;30.13;101644.72;4942899;29;20409;-82
2023/06/04 07:32:33;;;;;;;2.50;1.13;;;;;;;19.84;30.28;101657.56;4919327;29;20456;-82
2023/06/04 07:35:02;;;;;;;2.30;1.33;;;;;;;19.75;29.63;101654.34;4919357;29;20466;-81
2023/06/04 07:37:32;;;;;;;3.50;1.73;;;;;;;19.72;30.33;101654.03;4920351;29;20469;-82
2023/06/04 07:40:03;;;;;;;1.97;1.43;;;;;;;19.94;29.87;101655.84;4917910;29;20452;-83
2023/06/04 07:42:32;;;;;;;1.97;1.30;;;;;;;20.09;29.93;101647.03;4921416;29;20807;-82
2023/06/04 07:45:02;;;;;;;6.60;1.43;;;;;;;20.16;29.64;101655.97;4928716;29;20416;-84
2023/06/04 07:47:31;;;;;;;5.50;1.73;;;;;;;20.26;29.31;101667.16;4938250;29;20503;-84
2023/06/04 07:50:02;;;;;;;2.53;1.60;;;;;;;20.14;29.47;101660.88;4937890;29;20404;-84
2023/06/04 07:52:32;;;;;;;3.10;1.30;;;;;;;20.18;28.92;101659.31;4935338;29;20446;-84
2023/06/04 07:55:04;;;;;;;2.43;1.23;;;;;;;20.17;28.86;101657.66;4927738;29;20424;-84
2023/06/04 07:57:34;;;;;;;2.50;1.40;;;;;;;20.14;29.64;101658.13;4928949;29;20505;-83
2023/06/04 08:00:05;;;;;;;5.47;1.30;;;;;;;20.51;29.96;101654.97;4937921;29;20817;-84
2023/06/04 08:02:41;;;;;;;1.97;1.53;;;;;;;20.62;28.76;101654.84;4927610;29;20772;-84
2023/06/04 08:05:13;;;;;;;5.03;1.40;;;;;;;20.82;29.17;101649.69;4925192;29;20454;-83
2023/06/04 08:07:43;;;;;;;4.30;1.83;;;;;;;21.00;28.19;101653.25;4929649;29;20454;-83
2023/06/04 08:10:14;;;;;;;2.10;1.07;;;;;;;20.47;28.67;101651.88;4931277;29;20425;-84
2023/06/04 08:12:43;;;;;;;2.30;1.43;;;;;;;20.28;29.17;101662.22;4926788;29;20451;-83
2023/06/04 08:15:12;;;;;;;4.20;2.00;;;;;;;20.16;29.80;101658.72;4924973;29;20844;-84
2023/06/04 08:17:42;;;;;;;4.30;1.10;;;;;;;20.04;28.77;101654.38;4929435;29;20505;-83
2023/06/04 08:20:12;;;;;;;3.50;1.20;;;;;;;20.07;28.08;101662.94;4932508;29;20429;-82
2023/06/04 08:22:41;;;;;;;4.53;1.30;;;;;;;19.97;28.17;101665.50;4929954;29;20439;-83
2023/06/04 08:25:13;;;;;;;4.00;1.23;;;;;;;19.97;28.58;101657.25;4930117;29;20416;-84
2023/06/04 08:27:43;;;;;;;1.93;0.90;;;;;;;19.98;28.01;101658.94;4926600;29;20621;-84
2023/06/04 08:30:13;;;;;;;2.07;1.60;;;;;;;20.03;27.87;101661.78;4929173;29;20495;-84
2023/06/04 08:32:42;;;;;;;1.83;1.20;;;;;;;20.39;27.65;101653.13;4930654;29;20835;-84
2023/06/04 08:35:11;;;;;;;2.00;1.10;;;;;;;20.65;27.28;101661.78;4931090;29;20438;-84
2023/06/04 08:37:40;;;;;;;3.03;1.20;;;;;;;20.66;27.27;101663.47;4939833;29;20451;-83
2023/06/04 08:40:12;;;;;;;2.60;1.33;;;;;;;20.51;28.20;101654.97;4940401;29;20424;-83
2023/06/04 08:42:45;;;;;;;1.47;0.90;;;;;;;20.84;28.42;101654.94;4942552;29;20440;-85
2023/06/04 08:45:16;;;;;;;4.50;1.40;;;;;;;21.23;28.45;101662.16;4931558;29;20429;-83
2023/06/04 08:47:49;;;;;;;2.23;1.03;;;;;;;21.34;27.19;101662.31;4935652;29;20467;-83
2023/06/04 08:50:20;;;;;;;5.83;1.57;;;;;;;21.47;27.64;101661.91;4937156;29;20514;-83
2023/06/04 08:52:53;;;;;;;2.10;1.07;;;;;;;21.52;27.16;101662.81;4937383;29;20522;-83
2023/06/04 08:55:23;;;;;;;3.07;1.90;;;;;;;21.50;27.20;101664.97;4933355;29;20543;-85
2023/06/04 08:57:54;;;;;;;2.47;1.17;;;;;;;20.76;27.54;101666.38;4933166;29;20464;-83
2023/06/04 09:00:24;;;;;;;2.57;1.40;;;;;;;20.78;27.95;101661.44;4933420;29;20448;-83
2023/06/04 09:02:59;;;;;;;2.17;1.30;;;;;;;20.93;27.89;101664.44;4925588;29;20433;-84
2023/06/04 09:05:31;;;;;;;9.13;1.30;;;;;;;20.73;27.98;101667.69;4931513;29;20477;-83
2023/06/04 09:08:05;;;;;;;2.60;1.30;;;;;;;20.95;27.78;101665.03;4934904;29;20465;-82
2023/06/04 09:10:38;;;;;;;2.27;1.00;;;;;;;21.04;27.47;101662.66;4928536;29;20458;-83
2023/06/04 09:13:12;;;;;;;1.90;1.00;;;;;;;21.36;27.57;101657.34;4935143;29;20404;-84
2023/06/04 09:15:42;;;;;;;1.73;1.10;;;;;;;21.23;27.21;101653.91;4940340;29;20413;-84
2023/06/04 09:18:12;;;;;;;6.20;2.40;;;;;;;21.34;26.19;101656.78;4939874;29;20807;-84
2023/06/04 09:20:41;;;;;;;5.60;1.50;;;;;;;21.19;27.47;101663.75;4939860;29;20567;-85
2023/06/04 09:23:17;;;;;;;2.00;0.93;;;;;;;20.95;27.03;101662.28;4935862;29;20409;-84
2023/06/04 09:25:47;;;;;;;2.10;1.20;;;;;;;21.04;26.57;101663.50;4940552;29;20485;-84
2023/06/04 09:28:21;;;;;;;2.10;1.30;;;;;;;20.93;26.30;101658.94;4928866;29;20458;-84
2023/06/04 09:30:54;;;;;;;2.17;1.03;;;;;;;21.31;26.27;101662.78;4937719;29;20439;-85
2023/06/04 09:33:26;;;;;;;2.60;1.50;;;;;;;21.32;26.01;101661.72;4945271;28;20407;-86
2023/06/04 09:35:59;;;;;;;2.37;1.67;;;;;;;20.94;26.62;101671.59;4941651;29;20421;-85
2023/06/04 09:38:38;;;;;;;2.47;1.27;;;;;;;20.80;26.41;101668.38;4939090;29;20498;-84
2023/06/04 09:41:15;;;;;;;3.03;1.57;;;;;;;21.07;26.56;101668.50;4935328;29;20458;-85
2023/06/04 09:43:50;;;;;;;2.77;1.67;;;;;;;20.99;26.30;101666.19;4932357;29;20473;-85
2023/06/04 09:46:22;;;;;;;3.50;1.23;;;;;;;21.14;26.83;101660.94;4927645;29;20489;-85
2023/06/04 09:49:02;;;;;;;1.90;1.10;;;;;;;21.35;26.59;101656.50;4935091;29;20445;-85
2023/06/04 09:51:32;;;;;;;2.90;1.20;;;;;;;21.52;25.84;101662.81;4935790;29;20458;-85
2023/06/04 09:54:06;;;;;;;2.13;1.40;;;;;;;21.61;26.23;101661.28;4932813;29;20449;-84
2023/06/04 09:56:43;;;;;;;2.10;1.37;;;;;;;22.17;25.97;101655.59;4938249;29;20464;-84
2023/06/04 09:59:15;;;;;;;5.47;1.43;;;;;;;22.62;25.87;101653.22;4934691;29;20416;-84
2023/06/04 10:01:48;;;;;;;2.63;1.43;;;;;;;23.02;24.85;101662.91;4937081;29;20466;-85
2023/06/04 10:04:19;;;;;;;2.20;1.27;;;;;;;22.91;24.10;101657.31;4936677;29;20433;-83
2023/06/04 10:06:51;;;;;;;2.73;2.00;;;;;;;23.03;24.76;101659.06;4935214;29;20458;-84
2023/06/04 10:09:22;;;;;;;1.90;1.60;;;;;;;23.26;25.16;101647.59;4927153;29;20434;-81
2023/06/04 10:11:57;;;;;;;1.80;1.10;;;;;;;22.73;24.80;101648.63;4933459;29;20544;-83
2023/06/04 10:14:37;;;;;;;2.40;1.40;;;;;;;22.47;24.60;101655.84;4925424;29;20416;-84
2023/06/04 10:17:08;;;;;;;4.33;1.73;;;;;;;22.68;25.17;101643.88;4919734;29;20540;-84
2023/06/04 10:19:39;;;;;;;2.90;1.13;;;;;;;22.82;24.76;101645.13;4929964;29;20445;-83
2023/06/04 10:22:09;;;;;;;3.77;1.60;;;;;;;22.81;24.60;101640.69;4927599;29;20489;-82
2023/06/04 10:24:39;;;;;;;3.00;1.40;;;;;;;22.31;24.80;101652.16;4925486;29;20524;-83
2023/06/04 10:27:11;;;;;;;2.07;1.07;;;;;;;21.91;25.37;101651.69;4931148;29;20496;-81
2023/06/04 10:29:41;;;;;;;3.10;1.40;;;;;;;21.92;25.52;101648.69;4938370;29;20524;-82
2023/06/04 10:32:11;;;;;;;1.70;1.00;;;;;;;21.77;25.65;101656.78;4936814;29;20560;-83
2023/06/04 10:34:42;;;;;;;3.00;1.47;;;;;;;21.87;25.62;101651.38;4931787;29;20477;-84
2023/06/04 10:37:22;;;;;;;2.50;1.30;;;;;;;21.54;25.40;101657.88;4947721;29;20530;-83
2023/06/04 10:39:54;;;;;;;3.70;1.50;;;;;;;22.01;25.56;101649.91;4933383;29;20446;-81
2023/06/04 10:42:24;;;;;;;1.97;1.50;;;;;;;22.25;25.63;101646.81;4938475;29;20451;-83
2023/06/04 10:44:56;;;;;;;3.43;1.30;;;;;;;22.21;25.52;101642.94;4938365;29;20420;-81
2023/06/04 10:47:30;;;;;;;3.53;2.10;;;;;;;22.62;26.19;101639.41;4935781;29;20452;-82
2023/06/04 10:50:10;;;;;;;2.23;1.53;;;;;;;22.50;25.46;101647.06;4934516;29;20419;-83
2023/06/04 10:52:51;;;;;;;7.00;1.40;;;;;;;22.46;25.36;101651.44;4932113;29;20432;-83
2023/06/04 10:55:21;;;;;;;3.00;1.30;;;;;;;22.47;25.79;101650.31;4936064;29;20449;-83
2023/06/04 10:57:56;;;;;;;4.70;1.63;;;;;;;22.37;25.18;101650.22;4933766;29;20490;-83
2023/06/04 11:00:45;;;;;;;3.50;1.27;;;;;;;22.18;25.40;101643.44;4937209;29;20427;-83
2023/06/04 11:03:15;;;;;;;3.77;1.50;;;;;;;22.27;25.39;101639.94;4938709;29;20497;-83
2023/06/04 11:05:46;;;;;;;2.70;1.33;;;;;;;22.51;25.65;101634.94;4939164;29;20401;-83
2023/06/04 11:08:17;;;;;;;3.10;1.40;;;;;;;23.01;25.75;101644.69;4938340;29;20462;-82
2023/06/04 11:10:47;;;;;;;2.80;1.23;;;;;;;23.02;24.64;101647.19;4936815;29;20495;-80
2023/06/04 11:13:23;;;;;;;4.33;1.47;;;;;;;22.53;24.98;101638.25;4937551;29;20432;-82
2023/06/04 11:15:55;;;;;;;2.23;1.40;;;;;;;22.54;24.39;101634.41;4940517;29;20501;-82
2023/06/04 11:18:25;;;;;;;1.50;1.13;;;;;;;22.78;24.42;101629.38;4938313;29;20504;-81
2023/06/04 11:21:02;;;;;;;1.83;1.47;;;;;;;22.90;24.09;101633.56;4937691;29;20393;-82
2023/06/04 11:23:31;;;;;;;1.93;1.30;;;;;;;23.10;24.43;101627.34;4938618;29;20491;-82
2023/06/04 11:26:01;;;;;;;2.40;1.40;;;;;;;23.09;24.21;101620.16;4939130;29;20452;-82
2023/06/04 11:28:30;;;;;;;9.10;1.40;;;;;;;23.08;25.25;101617.69;4934856;29;20510;-81
2023/06/04 11:31:03;;;;;;;2.23;1.10;;;;;;;23.04;24.18;101611.88;4937066;29;20478;-82
2023/06/04 11:33:43;;;;;;;1.90;1.30;;;;;;;23.04;23.96;101622.09;4937252;29;20448;-81
2023/06/04 11:36:12;;;;;;;3.23;1.30;;;;;;;22.63;24.67;101627.28;4934688;29;20437;-80
2023/06/04 11:38:41;;;;;;;3.97;1.37;;;;;;;22.45;24.93;101620.28;4937796;28;20472;-81
2023/06/04 11:41:10;;;;;;;2.90;1.27;;;;;;;22.51;24.56;101618.38;4938257;29;20603;-77
2023/06/04 11:43:43;;;;;;;2.47;1.23;;;;;;;22.75;24.65;101614.16;4929317;29;20557;-82
2023/06/04 11:46:14;;;;;;;2.53;1.67;;;;;;;22.80;24.70;101613.38;4941693;29;20436;-80